Time;durP1;ratioP1;P1;durP2;ratioP2;P2;SDS_P1;SDS_P2;PMS_P1;PMS_P2;Temp;Humidity;BMP_temperature;BMP_pressure;BME280_temperature;BME280_humidity;BME280_pressure;Samples;Min_cycle;Max_cycle;Signal;HPM_P1;HPM_P2
2021/07/08 00:00:25;;;;;;;5.73;1.73;;;;;;;24.23;54.03;96950.53;5094159;28;20246;-63
2021/07/08 00:02:51;;;;;;;3.57;1.97;;;;;;;24.22;54.09;96941.69;5093272;28;20473;-63
2021/07/08 00:05:20;;;;;;;4.23;1.67;;;;;;;24.17;53.59;96938.16;5092856;28;20423;-65
2021/07/08 00:07:46;;;;;;;4.27;1.97;;;;;;;24.03;54.36;96938.47;5094086;28;20456;-63
2021/07/08 00:10:15;;;;;;;5.43;1.70;;;;;;;24.15;54.00;96942.94;5093155;28;20439;-65
2021/07/08 00:12:41;;;;;;;4.30;1.80;;;;;;;24.30;53.63;96931.59;5091838;28;20202;-65
2021/07/08 00:15:10;;;;;;;2.13;1.93;;;;;;;24.36;53.06;96939.47;5092520;28;20420;-64
2021/07/08 00:17:36;;;;;;;2.13;1.73;;;;;;;24.19;53.78;96938.72;5092521;28;20773;-64
2021/07/08 00:20:06;;;;;;;1.53;1.43;;;;;;;24.18;53.67;96939.75;5092479;28;20458;-65
2021/07/08 00:22:32;;;;;;;4.30;1.77;;;;;;;24.27;53.39;96932.09;5084649;28;20177;-65
2021/07/08 00:24:57;;;;;;;2.63;1.83;;;;;;;24.15;53.79;96924.97;5092487;28;20480;-65
2021/07/08 00:27:23;;;;;;;1.50;1.30;;;;;;;24.27;53.86;96918.72;5092358;28;20665;-66
2021/07/08 00:29:48;;;;;;;3.20;1.70;;;;;;;24.33;53.00;96909.69;5092465;28;20197;-65
2021/07/08 00:32:16;;;;;;;1.90;1.70;;;;;;;24.43;52.89;96917.84;5092523;28;20264;-64
2021/07/08 00:34:42;;;;;;;1.60;1.50;;;;;;;24.50;52.80;96913.16;5092138;28;20178;-64
2021/07/08 00:37:07;;;;;;;2.03;1.83;;;;;;;24.45;52.56;96928.31;5092658;28;20494;-64
2021/07/08 00:39:33;;;;;;;3.23;1.27;;;;;;;24.51;52.29;96933.47;5092471;28;20451;-64
2021/07/08 00:41:59;;;;;;;1.93;1.40;;;;;;;24.54;52.40;96930.31;5093590;28;20178;-65
2021/07/08 00:44:24;;;;;;;1.80;1.60;;;;;;;24.57;52.04;96931.69;5092262;28;20170;-64
2021/07/08 00:46:50;;;;;;;3.30;1.60;;;;;;;24.61;52.34;96932.00;5092605;28;20201;-64
2021/07/08 00:49:16;;;;;;;3.03;1.90;;;;;;;24.54;52.54;96937.56;5091862;28;20201;-65
2021/07/08 00:51:42;;;;;;;2.03;1.60;;;;;;;24.48;52.71;96938.53;5086810;28;20197;-64
2021/07/08 00:54:09;;;;;;;1.80;1.70;;;;;;;24.38;52.59;96940.03;5089561;28;20910;-66
2021/07/08 00:56:36;;;;;;;2.30;2.03;;;;;;;24.26;53.16;96936.66;5092601;28;20253;-64
2021/07/08 00:59:07;;;;;;;2.07;1.60;;;;;;;23.98;54.38;96919.66;5092058;28;20489;-64
2021/07/08 01:01:33;;;;;;;6.73;1.97;;;;;;;23.67;55.62;96908.50;5090838;28;20416;-64
2021/07/08 01:04:01;;;;;;;5.37;2.00;;;;;;;23.17;57.96;96892.16;5091799;28;20412;-64
2021/07/08 01:06:27;;;;;;;2.10;1.93;;;;;;;22.96;58.10;96882.97;5090994;28;20820;-63
2021/07/08 01:08:53;;;;;;;3.23;2.20;;;;;;;22.96;58.57;96876.78;5092259;28;20439;-63
2021/07/08 01:11:19;;;;;;;3.90;2.27;;;;;;;22.76;58.93;96875.38;5090812;28;20174;-64
2021/07/08 01:13:45;;;;;;;7.77;2.07;;;;;;;23.00;58.50;96868.06;5091745;28;20427;-64
2021/07/08 01:16:11;;;;;;;6.00;2.10;;;;;;;23.13;58.07;96871.47;5091523;28;20451;-63
2021/07/08 01:18:37;;;;;;;5.73;1.93;;;;;;;23.28;57.44;96868.31;5090519;28;20300;-65
2021/07/08 01:21:41;;;;;;;5.60;1.70;;;;;;;23.59;56.14;96858.91;5091610;28;20272;-64
2021/07/08 01:24:07;;;;;;;2.03;1.70;;;;;;;23.72;55.77;96849.72;5088196;28;20426;-64
2021/07/08 01:26:33;;;;;;;1.80;1.70;;;;;;;23.70;55.87;96848.34;5091564;28;20451;-64
2021/07/08 01:28:59;;;;;;;1.90;1.63;;;;;;;23.64;56.57;96852.81;5090123;28;20517;-64
2021/07/08 01:31:26;;;;;;;2.40;2.03;;;;;;;23.65;56.16;96856.28;5091682;28;20182;-63
2021/07/08 01:33:52;;;;;;;3.03;1.87;;;;;;;23.57;56.45;96855.66;5092362;28;20435;-64
2021/07/08 01:36:18;;;;;;;2.10;1.60;;;;;;;23.62;55.88;96865.59;5099162;28;20428;-65
2021/07/08 01:38:44;;;;;;;2.50;1.70;;;;;;;23.51;57.11;96871.88;5091173;28;20442;-64
2021/07/08 01:41:10;;;;;;;4.90;2.10;;;;;;;23.56;56.50;96879.97;5091132;28;20648;-65
2021/07/08 01:43:38;;;;;;;3.33;2.33;;;;;;;23.43;56.53;96881.91;5094906;28;20426;-65
2021/07/08 01:46:08;;;;;;;3.13;2.17;;;;;;;22.98;58.08;96894.22;5091266;28;20508;-65
2021/07/08 01:48:34;;;;;;;7.53;2.40;;;;;;;22.03;61.84;96894.44;5091173;28;20503;-65
2021/07/08 01:51:02;;;;;;;2.57;2.13;;;;;;;21.77;63.48;96906.41;5091442;28;20450;-65
2021/07/08 01:53:28;;;;;;;5.37;2.90;;;;;;;21.04;65.99;96901.16;5082950;28;20457;-64
2021/07/08 01:55:56;;;;;;;5.63;3.10;;;;;;;20.53;69.06;96900.56;5093502;28;20799;-64
2021/07/08 01:58:22;;;;;;;5.60;2.80;;;;;;;20.38;69.39;96892.94;5090936;28;20719;-64
2021/07/08 02:00:48;;;;;;;2.57;2.20;;;;;;;21.14;67.47;96889.97;5091070;28;20427;-64
2021/07/08 02:03:13;;;;;;;3.40;2.50;;;;;;;21.46;64.30;96887.81;5090747;28;20191;-64
2021/07/08 02:05:39;;;;;;;3.50;2.30;;;;;;;21.87;62.56;96887.16;5090814;28;20223;-64
2021/07/08 02:08:04;;;;;;;4.10;2.60;;;;;;;21.27;65.51;96875.59;5090654;28;20297;-64
2021/07/08 02:10:30;;;;;;;7.33;2.90;;;;;;;20.91;66.69;96872.88;5090583;28;20174;-63
2021/07/08 02:12:56;;;;;;;7.00;2.10;;;;;;;21.24;66.21;96871.56;5091088;28;20665;-63
2021/07/08 02:15:21;;;;;;;3.70;2.47;;;;;;;21.80;64.26;96865.94;5089612;28;20522;-65
2021/07/08 02:17:47;;;;;;;6.23;2.80;;;;;;;22.01;61.70;96867.19;5094680;28;20216;-63
2021/07/08 02:20:13;;;;;;;3.40;2.37;;;;;;;21.99;62.79;96863.94;5094849;28;20205;-65
2021/07/08 02:22:39;;;;;;;4.20;2.33;;;;;;;22.32;61.12;96857.16;5086801;28;20638;-64
2021/07/08 02:25:06;;;;;;;14.53;2.80;;;;;;;22.22;61.48;96860.44;5094365;28;20415;-64
2021/07/08 02:27:32;;;;;;;6.20;1.83;;;;;;;22.53;60.46;96863.75;5094969;28;20467;-64
2021/07/08 02:29:58;;;;;;;3.93;2.00;;;;;;;23.01;58.52;96868.88;5095353;28;20804;-63
2021/07/08 02:32:23;;;;;;;1.97;1.83;;;;;;;23.33;57.19;96865.69;5095033;28;20418;-63
2021/07/08 02:34:49;;;;;;;4.60;2.40;;;;;;;23.09;56.90;96871.16;5094788;28;20220;-63
2021/07/08 02:37:15;;;;;;;2.20;2.00;;;;;;;22.50;58.86;96863.41;5097801;28;20184;-63
2021/07/08 02:39:41;;;;;;;3.20;2.40;;;;;;;22.20;60.20;96865.19;5097273;28;20612;-64
2021/07/08 02:42:07;;;;;;;5.37;2.33;;;;;;;22.12;60.13;96857.56;5098536;28;20422;-63
2021/07/08 02:44:33;;;;;;;4.13;2.20;;;;;;;21.90;62.40;96849.34;5094916;28;20182;-64
2021/07/08 02:46:59;;;;;;;2.50;2.00;;;;;;;22.11;61.36;96849.81;5094987;28;20553;-64
2021/07/08 02:49:25;;;;;;;2.30;2.10;;;;;;;22.38;59.86;96863.41;5094603;28;20431;-64
2021/07/08 02:51:51;;;;;;;2.70;2.50;;;;;;;22.38;59.86;96871.44;5087460;28;20466;-64
2021/07/08 02:54:17;;;;;;;1.80;1.70;;;;;;;22.20;61.42;96869.72;5092603;28;20277;-65
2021/07/08 02:56:42;;;;;;;4.23;2.50;;;;;;;21.39;63.43;96876.44;5094551;28;20510;-64
2021/07/08 02:59:08;;;;;;;2.37;2.10;;;;;;;21.57;64.29;96883.53;5094556;28;20193;-64
2021/07/08 03:01:33;;;;;;;2.07;1.97;;;;;;;21.91;62.19;96873.13;5094386;28;20231;-63
2021/07/08 03:03:59;;;;;;;2.10;2.00;;;;;;;22.24;60.09;96861.00;5093960;28;20672;-64
2021/07/08 03:06:24;;;;;;;4.63;2.40;;;;;;;22.01;60.55;96869.06;5093911;28;20205;-63
2021/07/08 03:08:50;;;;;;;4.57;2.60;;;;;;;21.37;63.25;96888.38;5093906;28;20197;-63
2021/07/08 03:11:16;;;;;;;3.47;2.40;;;;;;;20.70;65.54;96885.59;5092926;28;20185;-65
2021/07/08 03:13:42;;;;;;;2.10;2.00;;;;;;;20.88;65.28;96886.63;5094061;28;20185;-64
2021/07/08 03:16:08;;;;;;;2.83;2.50;;;;;;;21.15;64.24;96884.38;5094000;28;20177;-64
2021/07/08 03:18:33;;;;;;;14.30;5.53;;;;;;;21.35;63.72;96869.13;5094020;28;20440;-64
2021/07/08 03:20:59;;;;;;;83.03;21.20;;;;;;;21.43;62.10;96877.59;5093846;28;20183;-65
2021/07/08 03:23:25;;;;;;;11.80;4.80;;;;;;;20.83;64.11;96879.31;5085034;28;20269;-64
2021/07/08 03:25:50;;;;;;;4.73;2.90;;;;;;;20.57;65.49;96888.44;5093971;28;20170;-65
2021/07/08 03:28:16;;;;;;;5.47;2.93;;;;;;;20.60;65.78;96901.28;5092990;28;20206;-64
2021/07/08 03:30:42;;;;;;;5.80;2.20;;;;;;;20.27;66.00;96910.50;5086329;28;20652;-63
2021/07/08 03:33:07;;;;;;;5.17;3.03;;;;;;;20.38;67.67;96908.91;5093883;28;20177;-63
2021/07/08 03:35:33;;;;;;;12.23;3.93;;;;;;;21.45;63.45;96906.69;5093706;28;20492;-64
2021/07/08 03:37:59;;;;;;;9.03;3.80;;;;;;;22.35;60.01;96893.25;5081175;28;20258;-64
2021/07/08 03:40:26;;;;;;;9.00;3.10;;;;;;;23.01;57.27;96903.63;5082197;28;20209;-64
2021/07/08 03:42:52;;;;;;;8.10;3.00;;;;;;;23.31;56.62;96899.91;5093220;28;20208;-64
2021/07/08 03:45:18;;;;;;;9.87;3.10;;;;;;;23.41;56.05;96896.56;5093201;28;20499;-63
2021/07/08 03:47:44;;;;;;;5.97;2.77;;;;;;;23.63;55.38;96904.69;5093331;28;20212;-63
2021/07/08 03:50:11;;;;;;;5.40;2.60;;;;;;;23.74;54.66;96886.94;5095764;28;20580;-63
2021/07/08 03:52:42;;;;;;;4.60;2.20;;;;;;;23.78;54.78;96888.88;5093264;28;20899;-64
2021/07/08 03:55:09;;;;;;;4.53;2.17;;;;;;;23.67;55.08;96892.44;5092937;28;20485;-63
2021/07/08 03:57:35;;;;;;;4.13;2.07;;;;;;;23.60;54.88;96891.78;5095884;28;20416;-63
2021/07/08 04:00:01;;;;;;;2.70;2.10;;;;;;;23.56;55.31;96890.66;5092593;28;20454;-64
2021/07/08 04:02:27;;;;;;;5.30;2.60;;;;;;;23.55;54.71;96895.19;5093406;28;20641;-64
2021/07/08 04:04:52;;;;;;;8.03;2.20;;;;;;;23.38;55.78;96889.84;5075104;28;20423;-63
2021/07/08 04:07:18;;;;;;;2.13;1.90;;;;;;;23.38;56.03;96895.19;5093127;28;20214;-63
2021/07/08 04:09:43;;;;;;;2.60;1.90;;;;;;;23.39;55.17;96896.81;5092654;28;20234;-64
2021/07/08 04:12:09;;;;;;;3.27;2.17;;;;;;;23.41;55.67;96891.22;5091330;28;20189;-63
2021/07/08 04:14:35;;;;;;;3.00;1.70;;;;;;;23.50;55.36;96894.31;5092580;28;20192;-63
2021/07/08 04:17:00;;;;;;;4.10;1.93;;;;;;;23.37;55.16;96893.56;5092204;28;20264;-64
2021/07/08 04:19:26;;;;;;;1.83;1.63;;;;;;;23.14;56.88;96895.31;5092830;28;20193;-65
2021/07/08 04:21:52;;;;;;;5.00;2.30;;;;;;;23.13;56.10;96883.00;5092850;28;20489;-64
2021/07/08 04:24:17;;;;;;;4.80;2.10;;;;;;;23.05;56.88;96871.88;5092378;28;20186;-65
2021/07/08 04:26:43;;;;;;;4.33;2.00;;;;;;;23.17;56.70;96867.28;5092644;28;20217;-64
2021/07/08 04:29:08;;;;;;;3.47;2.30;;;;;;;23.00;56.96;96868.06;5092404;28;20277;-63
2021/07/08 04:31:34;;;;;;;5.40;2.00;;;;;;;22.85;57.81;96871.28;5092489;28;20184;-64
2021/07/08 04:34:00;;;;;;;4.23;2.40;;;;;;;22.83;57.46;96864.56;5095164;28;20643;-64
2021/07/08 04:36:25;;;;;;;3.33;2.50;;;;;;;22.68;57.74;96865.91;5084679;28;20176;-64
2021/07/08 04:38:53;;;;;;;4.80;2.30;;;;;;;22.64;58.34;96856.72;5091083;28;20270;-64
2021/07/08 04:41:20;;;;;;;2.50;2.30;;;;;;;22.67;58.66;96868.81;5092365;28;20193;-64
2021/07/08 04:43:46;;;;;;;4.10;2.80;;;;;;;22.80;57.89;96865.84;5091775;28;20515;-64
2021/07/08 04:46:11;;;;;;;3.00;1.93;;;;;;;22.94;57.61;96865.53;5092363;28;20500;-64
2021/07/08 04:48:37;;;;;;;4.70;1.90;;;;;;;23.07;56.94;96867.09;5092920;28;20210;-64
2021/07/08 04:51:03;;;;;;;1.87;1.67;;;;;;;23.10;57.23;96869.31;5092115;28;20218;-64
2021/07/08 04:53:29;;;;;;;2.77;2.10;;;;;;;22.81;58.43;96870.13;5092301;28;20177;-64
2021/07/08 04:55:55;;;;;;;2.33;2.13;;;;;;;22.94;57.76;96873.56;5092297;28;20439;-64
2021/07/08 04:58:20;;;;;;;3.50;3.00;;;;;;;22.67;58.85;96866.16;5091865;28;20303;-64
2021/07/08 05:00:46;;;;;;;2.43;2.13;;;;;;;22.73;58.32;96862.50;5069977;28;20243;-64
2021/07/08 05:03:12;;;;;;;4.53;2.30;;;;;;;22.82;58.37;96862.94;5090070;28;20465;-64
2021/07/08 05:05:38;;;;;;;2.53;1.90;;;;;;;23.08;57.31;96858.84;5091937;28;20184;-64
2021/07/08 05:08:04;;;;;;;11.07;2.67;;;;;;;22.99;57.51;96853.09;5092219;28;20201;-63
2021/07/08 05:10:30;;;;;;;5.43;3.07;;;;;;;22.72;57.63;96858.22;5092534;28;20508;-64
2021/07/08 05:12:56;;;;;;;2.80;1.90;;;;;;;23.05;57.45;96854.00;5092887;28;20810;-63
2021/07/08 05:15:21;;;;;;;5.50;3.17;;;;;;;22.88;57.77;96851.28;5092079;28;20173;-64
2021/07/08 05:17:48;;;;;;;5.23;2.73;;;;;;;22.96;57.93;96858.91;5092539;28;20644;-64
2021/07/08 05:20:15;;;;;;;2.13;1.93;;;;;;;23.07;57.45;96859.88;5092177;28;20198;-65
2021/07/08 05:22:41;;;;;;;9.90;2.40;;;;;;;22.98;57.69;96858.66;5084913;28;20927;-64
2021/07/08 05:25:09;;;;;;;6.80;4.00;;;;;;;22.89;57.54;96865.47;5078056;28;20920;-63
2021/07/08 05:27:35;;;;;;;4.83;4.30;;;;;;;22.19;60.23;96884.13;5078167;28;20905;-63
2021/07/08 05:30:04;;;;;;;3.70;3.17;;;;;;;21.76;62.27;96894.13;5084928;28;20443;-64
2021/07/08 05:32:29;;;;;;;3.73;3.30;;;;;;;21.49;64.24;96891.88;5078881;28;20448;-64
2021/07/08 05:34:55;;;;;;;4.20;2.80;;;;;;;21.95;62.49;96889.47;5079212;28;21023;-64
2021/07/08 05:37:21;;;;;;;3.23;3.00;;;;;;;22.29;60.30;96886.19;5079147;28;20173;-65
2021/07/08 05:39:46;;;;;;;6.03;3.73;;;;;;;22.30;59.77;96904.63;5075711;28;20209;-64
2021/07/08 05:42:12;;;;;;;6.80;4.30;;;;;;;21.91;61.54;96920.31;5079594;28;20319;-64
2021/07/08 05:44:37;;;;;;;5.03;4.40;;;;;;;21.62;63.08;96937.00;5080618;28;20571;-64
2021/07/08 05:47:03;;;;;;;5.40;3.73;;;;;;;21.88;62.75;96948.28;5079263;28;20209;-64
2021/07/08 05:49:29;;;;;;;7.90;3.30;;;;;;;22.11;61.93;96946.66;5084739;28;20196;-64
2021/07/08 05:51:54;;;;;;;5.50;3.10;;;;;;;22.21;61.48;96962.09;5079437;28;20170;-63
2021/07/08 05:54:20;;;;;;;5.40;3.60;;;;;;;21.85;62.05;96964.75;5078208;28;20189;-64
2021/07/08 05:56:46;;;;;;;4.20;3.33;;;;;;;21.31;63.96;96965.53;5083337;28;20169;-64
2021/07/08 05:59:11;;;;;;;4.00;3.43;;;;;;;21.78;62.86;96977.38;5084913;28;20194;-64
2021/07/08 06:01:37;;;;;;;3.87;2.97;;;;;;;22.07;61.66;96982.84;5086170;28;20193;-64
2021/07/08 06:04:03;;;;;;;7.57;3.70;;;;;;;22.20;60.68;96990.63;5087628;28;20227;-63
2021/07/08 06:06:28;;;;;;;6.10;3.00;;;;;;;22.38;60.28;96997.69;5091244;28;20231;-63
2021/07/08 06:08:54;;;;;;;2.90;2.33;;;;;;;22.58;59.66;97009.06;5091568;28;20331;-65
2021/07/08 06:11:19;;;;;;;6.77;2.50;;;;;;;22.89;58.57;96991.81;5091030;28;20184;-64
2021/07/08 06:13:45;;;;;;;4.40;2.20;;;;;;;23.16;57.29;96984.06;5090704;28;20591;-64
2021/07/08 06:16:10;;;;;;;4.20;2.00;;;;;;;23.20;57.21;96983.59;5091258;28;20611;-64
2021/07/08 06:18:36;;;;;;;3.77;2.50;;;;;;;23.17;57.18;96975.00;5088019;28;20201;-64
2021/07/08 06:21:03;;;;;;;4.50;3.10;;;;;;;23.08;57.61;96967.59;5092573;28;20182;-63
2021/07/08 06:23:30;;;;;;;3.93;2.50;;;;;;;23.13;57.62;96968.50;5092832;28;20411;-63
2021/07/08 06:25:57;;;;;;;3.03;2.10;;;;;;;23.24;57.12;96958.84;5086793;28;20726;-64
2021/07/08 06:28:22;;;;;;;5.87;3.20;;;;;;;23.17;57.59;96953.63;5093204;28;20459;-63
2021/07/08 06:30:48;;;;;;;3.27;2.23;;;;;;;23.13;57.77;96962.34;5092575;28;20415;-64
2021/07/08 06:33:14;;;;;;;3.90;2.67;;;;;;;23.01;58.05;96957.06;5091513;28;20174;-65
2021/07/08 06:35:39;;;;;;;8.00;3.67;;;;;;;21.94;62.18;96973.22;5094422;28;20177;-65
2021/07/08 06:38:05;;;;;;;3.30;2.13;;;;;;;22.50;60.34;96955.00;5090404;28;20617;-64
2021/07/08 06:40:31;;;;;;;2.60;2.40;;;;;;;22.95;58.99;96955.31;5091430;28;20221;-65
2021/07/08 06:43:00;;;;;;;2.77;2.00;;;;;;;23.41;57.25;96948.19;5091440;28;20590;-65
2021/07/08 06:45:26;;;;;;;7.97;2.30;;;;;;;23.53;56.98;96949.97;5082765;28;20408;-64
2021/07/08 06:48:00;;;;;;;5.00;2.50;;;;;;;23.44;57.11;96963.72;5087961;28;20459;-64
2021/07/08 06:50:26;;;;;;;4.50;2.47;;;;;;;23.28;57.73;96964.53;5091469;28;20442;-65
2021/07/08 06:52:52;;;;;;;2.90;2.37;;;;;;;23.18;58.14;96965.13;5091449;28;20412;-63
2021/07/08 06:55:17;;;;;;;2.43;2.23;;;;;;;23.26;58.44;96956.72;5084940;28;20224;-65
2021/07/08 06:57:51;;;;;;;3.20;2.90;;;;;;;23.38;57.73;96969.22;5091157;28;20180;-64
2021/07/08 07:00:25;;;;;;;6.73;2.50;;;;;;;23.46;58.12;96960.84;5091175;28;20273;-64
2021/07/08 07:02:52;;;;;;;3.10;2.30;;;;;;;23.62;57.96;96968.06;5093102;28;20420;-64
2021/07/08 07:05:18;;;;;;;5.13;2.70;;;;;;;23.70;57.27;96972.19;5094550;28;20408;-64
2021/07/08 07:07:45;;;;;;;9.43;2.47;;;;;;;23.15;59.22;96979.78;5094897;28;20550;-64
2021/07/08 07:10:11;;;;;;;3.30;2.60;;;;;;;23.60;58.40;96972.00;5094585;28;20193;-65
2021/07/08 07:12:57;;;;;;;5.40;2.57;;;;;;;23.69;56.80;96970.56;5094893;28;20427;-68
2021/07/08 07:15:24;;;;;;;2.83;2.10;;;;;;;23.60;56.58;96966.66;5094884;28;20557;-66
2021/07/08 07:17:50;;;;;;;4.20;2.17;;;;;;;23.56;56.83;96952.19;5095329;28;20412;-67
2021/07/08 07:20:17;;;;;;;2.93;1.97;;;;;;;23.54;57.34;96956.94;5094612;28;20447;-67
2021/07/08 07:22:45;;;;;;;5.90;2.70;;;;;;;23.50;57.85;96955.81;5095303;28;20178;-67
2021/07/08 07:25:12;;;;;;;2.50;2.30;;;;;;;23.42;58.00;96941.78;5089045;28;20427;-66
2021/07/08 07:27:38;;;;;;;3.23;2.50;;;;;;;23.35;57.48;96937.66;5091463;28;20458;-69
2021/07/08 07:30:05;;;;;;;2.13;1.93;;;;;;;23.28;58.26;96943.16;5096132;28;20946;-67
2021/07/08 07:32:32;;;;;;;2.90;2.33;;;;;;;23.17;58.39;96942.94;5100592;28;20201;-65
2021/07/08 07:34:59;;;;;;;3.50;3.00;;;;;;;23.29;58.57;96960.81;5094118;28;20427;-65
2021/07/08 07:37:25;;;;;;;5.60;2.23;;;;;;;23.33;58.14;96959.25;5094794;28;20408;-66
2021/07/08 07:39:52;;;;;;;2.40;2.20;;;;;;;23.32;58.74;96954.97;5085637;28;20452;-66
2021/07/08 07:42:17;;;;;;;6.17;2.90;;;;;;;23.35;58.74;96943.78;5081365;28;20533;-66
2021/07/08 07:44:44;;;;;;;4.80;2.10;;;;;;;22.94;60.28;96943.84;5080865;28;20467;-66
2021/07/08 07:47:14;;;;;;;5.10;2.77;;;;;;;22.60;61.23;96954.41;5093189;28;20202;-66
2021/07/08 07:49:40;;;;;;;2.37;2.23;;;;;;;22.87;60.82;96953.88;5099117;28;21098;-65
2021/07/08 07:52:06;;;;;;;2.90;2.70;;;;;;;22.63;62.23;96948.56;5089771;28;20510;-67
2021/07/08 07:54:35;;;;;;;6.07;2.93;;;;;;;22.29;63.70;96952.91;5089783;28;20177;-66
2021/07/08 07:57:04;;;;;;;3.03;2.80;;;;;;;22.73;61.92;96961.31;5069110;28;20446;-67
2021/07/08 07:59:30;;;;;;;3.33;2.80;;;;;;;22.53;62.40;96975.06;5091320;28;20804;-67
2021/07/08 08:01:56;;;;;;;5.43;3.10;;;;;;;22.83;61.84;96952.72;5091459;28;20763;-68
2021/07/08 08:04:23;;;;;;;7.80;3.10;;;;;;;23.01;61.37;96949.03;5092676;28;20423;-67
2021/07/08 08:09:33;;;;;;;2.57;2.37;;;;;;;23.14;60.05;96962.13;5093118;28;20423;-66
2021/07/08 08:11:59;;;;;;;8.00;3.10;;;;;;;23.28;60.06;96959.19;5093063;28;20426;-68
2021/07/08 08:14:26;;;;;;;4.60;3.20;;;;;;;23.06;61.51;96959.81;5090354;28;20227;-67
2021/07/08 08:16:51;;;;;;;7.27;3.57;;;;;;;23.24;62.01;96961.53;5091887;28;20261;-65
2021/07/08 08:19:17;;;;;;;3.87;2.80;;;;;;;23.28;61.94;96967.22;5091417;28;20530;-67
2021/07/08 08:21:43;;;;;;;3.10;2.80;;;;;;;23.30;62.17;96973.13;5092809;28;20283;-69
2021/07/08 08:24:08;;;;;;;6.17;2.67;;;;;;;23.69;60.88;96970.56;5092495;28;20177;-67
2021/07/08 08:26:34;;;;;;;3.20;2.90;;;;;;;24.03;59.95;96973.28;5087317;28;20243;-67
2021/07/08 08:28:59;;;;;;;2.97;2.77;;;;;;;23.94;60.33;96972.03;5092332;28;20213;-67
2021/07/08 08:31:25;;;;;;;5.23;3.23;;;;;;;23.85;60.45;96966.28;5091878;28;20178;-67
2021/07/08 08:33:51;;;;;;;3.07;2.87;;;;;;;24.10;59.74;96961.56;5091025;28;20177;-66
2021/07/08 08:36:16;;;;;;;4.23;2.63;;;;;;;24.25;58.74;96961.81;5092430;28;20289;-66
2021/07/08 08:38:42;;;;;;;4.70;4.00;;;;;;;24.37;56.31;96964.38;5092605;28;20610;-67
2021/07/08 08:41:07;;;;;;;5.40;3.47;;;;;;;24.49;54.65;96964.25;5094873;28;20184;-67
2021/07/08 08:43:33;;;;;;;4.40;3.50;;;;;;;24.67;53.63;96963.97;5091892;28;20274;-67
2021/07/08 08:46:02;;;;;;;2.90;2.70;;;;;;;25.07;52.60;96966.59;5092567;28;20177;-66
2021/07/08 08:48:28;;;;;;;4.20;3.07;;;;;;;24.99;53.01;96965.97;5092816;28;20239;-68
2021/07/08 08:50:53;;;;;;;3.90;3.37;;;;;;;25.09;52.71;96953.72;5091928;28;20420;-66
2021/07/08 08:53:20;;;;;;;3.20;2.90;;;;;;;25.32;51.47;96968.72;5091393;28;20251;-66
2021/07/08 08:55:46;;;;;;;4.90;3.00;;;;;;;25.61;51.03;96969.28;5086524;28;20205;-68
2021/07/08 08:58:15;;;;;;;4.83;2.67;;;;;;;25.51;49.91;96966.50;5090612;28;20423;-66
2021/07/08 09:00:42;;;;;;;3.00;2.77;;;;;;;25.50;50.42;96970.25;5091035;28;20412;-67
2021/07/08 09:03:13;;;;;;;3.00;2.50;;;;;;;25.33;50.47;96980.25;5090798;28;20419;-67
2021/07/08 09:05:41;;;;;;;3.23;2.53;;;;;;;25.48;50.38;96977.72;5092225;28;20423;-66
2021/07/08 09:08:19;;;;;;;3.00;2.80;;;;;;;25.45;50.66;96986.31;5091851;28;20528;-66
2021/07/08 09:10:50;;;;;;;6.93;2.63;;;;;;;25.61;49.97;96993.41;5090990;28;20439;-67
2021/07/08 09:13:16;;;;;;;5.33;3.20;;;;;;;25.76;49.72;96999.97;5089801;28;20416;-66
2021/07/08 09:15:42;;;;;;;4.17;2.40;;;;;;;25.84;49.74;97004.88;5092859;28;20450;-68
2021/07/08 09:18:08;;;;;;;4.17;3.10;;;;;;;25.67;50.14;97012.25;5093002;28;20408;-68
2021/07/08 09:20:36;;;;;;;6.63;3.33;;;;;;;25.75;49.26;97014.47;5092126;28;20523;-65
2021/07/08 09:23:11;;;;;;;5.00;3.30;;;;;;;25.46;50.26;97017.41;5091450;28;20477;-66
2021/07/08 09:25:37;;;;;;;6.90;4.17;;;;;;;25.28;50.73;97016.69;5086866;28;20514;-66
2021/07/08 09:28:11;;;;;;;3.37;2.80;;;;;;;25.08;50.96;97017.25;5091833;28;20452;-67
2021/07/08 09:30:37;;;;;;;3.03;2.83;;;;;;;24.96;50.95;97013.91;5089799;28;20977;-68
2021/07/08 09:33:03;;;;;;;7.93;2.67;;;;;;;25.08;50.35;97013.75;5091113;28;20427;-67
2021/07/08 09:35:39;;;;;;;2.27;2.07;;;;;;;24.84;51.54;97011.34;5091573;28;20420;-68
2021/07/08 09:38:13;;;;;;;2.60;2.40;;;;;;;24.73;52.75;97010.41;5091354;28;20439;-68
2021/07/08 09:40:40;;;;;;;3.07;2.10;;;;;;;24.52;52.86;97001.25;5093476;28;20443;-66
2021/07/08 09:43:06;;;;;;;2.90;2.60;;;;;;;24.56;53.06;97004.25;5093476;28;20408;-66
2021/07/08 09:45:44;;;;;;;2.43;2.23;;;;;;;24.72;52.89;96999.94;5091528;28;20510;-65
2021/07/08 09:48:18;;;;;;;3.73;2.57;;;;;;;24.74;52.59;96989.78;5089707;28;20527;-66
2021/07/08 09:50:44;;;;;;;5.27;2.20;;;;;;;24.80;51.72;96983.44;5091005;28;20419;-68
2021/07/08 09:53:16;;;;;;;2.00;1.90;;;;;;;24.99;51.59;96991.97;5092480;28;20430;-68
2021/07/08 09:58:56;;;;;;;4.13;2.37;;;;;;;24.84;52.26;96995.25;5086554;28;20492;-68
2021/07/08 10:01:22;;;;;;;2.67;2.47;;;;;;;24.27;52.99;97001.69;5091082;28;20559;-67
2021/07/08 10:03:48;;;;;;;5.17;2.47;;;;;;;24.72;52.05;96994.56;5090812;28;21028;-66
2021/07/08 10:06:15;;;;;;;2.50;2.30;;;;;;;24.57;52.58;96992.47;5089479;28;20416;-67
2021/07/08 10:08:41;;;;;;;2.20;2.00;;;;;;;24.88;51.38;96990.22;5090068;28;20546;-66
2021/07/08 10:11:09;;;;;;;2.40;2.20;;;;;;;25.22;51.00;96974.78;5090381;28;20532;-67
2021/07/08 10:13:35;;;;;;;3.53;2.77;;;;;;;25.39;50.23;96973.88;5090306;28;20184;-67
2021/07/08 10:16:04;;;;;;;3.40;2.83;;;;;;;25.35;50.07;96970.06;5090520;28;20906;-68
2021/07/08 10:18:31;;;;;;;2.10;2.00;;;;;;;25.47;48.17;96957.34;5090538;28;20910;-68
2021/07/08 10:20:57;;;;;;;2.50;2.30;;;;;;;25.59;48.43;96968.72;5089343;28;21024;-66
2021/07/08 10:23:24;;;;;;;4.10;2.70;;;;;;;25.79;46.39;96972.66;5089486;28;20412;-68
2021/07/08 10:25:50;;;;;;;9.33;5.27;;;;;;;25.53;47.43;96959.03;5084654;28;20174;-66
2021/07/08 10:28:17;;;;;;;2.40;2.20;;;;;;;26.00;45.26;96970.09;5090202;28;20448;-66
2021/07/08 10:30:43;;;;;;;1.60;1.27;;;;;;;25.64;43.94;96959.09;5089576;28;20491;-66
2021/07/08 10:33:09;;;;;;;1.10;1.00;;;;;;;26.06;44.00;96959.16;5090671;28;20510;-67
2021/07/08 10:35:40;;;;;;;1.53;1.33;;;;;;;26.30;42.68;96956.09;5090469;28;20169;-67
2021/07/08 10:38:27;;;;;;;2.10;1.80;;;;;;;26.45;43.69;96955.38;5092063;28;20733;-67
2021/07/08 10:40:58;;;;;;;3.27;1.70;;;;;;;26.01;44.34;96958.31;5094965;28;20412;-70
2021/07/08 10:43:53;;;;;;;1.20;1.10;;;;;;;25.88;44.79;96956.88;5092793;28;20844;-67
2021/07/08 10:46:19;;;;;;;2.70;1.30;;;;;;;26.50;43.44;96966.13;5091383;28;20931;-71
2021/07/08 10:48:46;;;;;;;3.07;1.40;;;;;;;25.53;45.73;96964.38;5091755;28;20523;-68
2021/07/08 10:51:27;;;;;;;3.73;1.40;;;;;;;25.99;44.98;96969.31;5081389;28;20190;-67
2021/07/08 10:53:52;;;;;;;2.80;1.40;;;;;;;25.83;45.06;96979.13;5084560;28;20511;-67
2021/07/08 10:56:23;;;;;;;2.03;1.33;;;;;;;26.23;44.14;96990.44;5079946;28;20442;-67
2021/07/08 10:58:56;;;;;;;3.63;1.37;;;;;;;26.03;45.05;96994.53;5067928;28;20194;-68
2021/07/08 11:01:22;;;;;;;2.37;2.23;;;;;;;26.15;44.11;96998.97;5089676;28;20439;-68
2021/07/08 11:03:48;;;;;;;1.90;1.80;;;;;;;26.07;43.85;97005.59;5090589;28;20420;-68
2021/07/08 11:06:25;;;;;;;1.60;1.50;;;;;;;25.96;44.51;97003.91;5091860;28;20197;-66
2021/07/08 11:09:09;;;;;;;2.40;1.30;;;;;;;25.85;45.26;97001.13;5091682;28;20500;-66
2021/07/08 11:11:34;;;;;;;1.40;1.20;;;;;;;25.99;45.13;97000.69;5083196;28;20503;-66
2021/07/08 11:14:11;;;;;;;2.73;1.30;;;;;;;26.10;44.67;97004.28;5091333;28;20958;-67
2021/07/08 11:16:47;;;;;;;1.40;1.30;;;;;;;25.50;44.97;97004.31;5091451;28;20292;-67
2021/07/08 11:19:19;;;;;;;1.27;1.17;;;;;;;25.90;44.20;96995.81;5089500;28;20508;-68
2021/07/08 11:21:51;;;;;;;3.53;1.10;;;;;;;26.15;42.25;96990.94;5082393;28;20399;-67
2021/07/08 11:24:21;;;;;;;2.63;1.00;;;;;;;26.08;42.74;96980.38;5093813;28;20503;-68
2021/07/08 11:26:58;;;;;;;2.20;2.00;;;;;;;26.33;42.95;96992.38;5088707;28;20443;-66
2021/07/08 11:29:40;;;;;;;2.00;1.60;;;;;;;26.32;42.38;96983.50;5093818;28;20495;-68
2021/07/08 11:32:31;;;;;;;2.47;1.87;;;;;;;26.55;41.70;96980.66;5093708;28;20777;-66
2021/07/08 11:35:00;;;;;;;1.57;1.47;;;;;;;26.81;41.43;96977.06;5093486;28;20428;-66
2021/07/08 11:37:36;;;;;;;1.83;1.60;;;;;;;26.59;42.01;96982.56;5085287;28;20813;-67
2021/07/08 11:40:03;;;;;;;1.20;1.10;;;;;;;26.46;42.28;96974.97;5091911;28;20847;-69